Terminal Aerodrome Forecast
Issued by NWS Flagstaff, AZ

Home | Current Version | Previous Version | Text Only | Print | Product List | Glossary On
Versions: 1 2 3 4 5 6 7 8 9 10 11 12
000
FTUS45 KFGZ 182320
TAFFLG
TAF
KFLG 182320Z 1900/1924 23009KT P6SM SCT110 BKN250
     FM190100 VRB03KT P6SM BKN090
     FM191800 22012G19KT P6SM SCT070 BKN150=

USA.gov is the U.S. government's official web portal to all federal, state and local government web resources and services.